Time;durP1;ratioP1;P1;durP2;ratioP2;P2;SDS_P1;SDS_P2;PMS_P1;PMS_P2;Temp;Humidity;BMP_temperature;BMP_pressure;BME280_temperature;BME280_humidity;BME280_pressure;Samples;Min_cycle;Max_cycle;Signal;HPM_P1;HPM_P2
2023/04/14 00:00:24;;;;;;;59.00;26.90;;;;;;;;;;5108904;28;20020;-64
2023/04/14 00:02:49;;;;;;;62.35;26.50;;;;;;;;;;5109200;28;20035;-66
2023/04/14 00:05:15;;;;;;;59.85;28.45;;;;;;;;;;5108959;28;20043;-63
2023/04/14 00:07:40;;;;;;;52.28;26.00;;;;;;;;;;5108071;28;20027;-64
2023/04/14 00:10:06;;;;;;;44.90;24.20;;;;;;;;;;5108748;28;20455;-68
2023/04/14 00:12:32;;;;;;;43.95;23.63;;;;;;;;;;5108556;28;20374;-64
2023/04/14 00:14:57;;;;;;;40.30;22.52;;;;;;;;;;5108171;28;20080;-64
2023/04/14 00:17:23;;;;;;;46.15;22.13;;;;;;;;;;5108571;28;20039;-63
2023/04/14 00:19:48;;;;;;;47.50;23.25;;;;;;;;;;5108112;28;20482;-64
2023/04/14 00:22:13;;;;;;;49.17;24.33;;;;;;;;;;5108158;28;20027;-66
2023/04/14 00:24:42;;;;;;;50.35;24.33;;;;;;;;;;5107877;28;20059;-66
2023/04/14 00:27:09;;;;;;;50.90;22.77;;;;;;;;;;5106597;28;20024;-66
2023/04/14 00:29:34;;;;;;;44.08;22.45;;;;;;;;;;5108319;28;20024;-63
2023/04/14 00:32:00;;;;;;;51.83;22.55;;;;;;;;;;5108156;28;20489;-63
2023/04/14 00:34:25;;;;;;;48.20;22.05;;;;;;;;;;5109443;28;20323;-63
2023/04/14 00:36:51;;;;;;;49.58;21.25;;;;;;;;;;5111602;28;20518;-67
2023/04/14 00:39:16;;;;;;;53.97;22.73;;;;;;;;;;5112720;28;20110;-63
2023/04/14 00:41:42;;;;;;;53.50;23.17;;;;;;;;;;5112601;28;20015;-68
2023/04/14 00:44:08;;;;;;;52.08;22.75;;;;;;;;;;5112391;28;20031;-63
2023/04/14 00:46:35;;;;;;;52.42;22.95;;;;;;;;;;5110030;28;20346;-64
2023/04/14 00:49:00;;;;;;;60.10;24.10;;;;;;;;;;5111759;28;20102;-63
2023/04/14 00:51:26;;;;;;;68.88;28.13;;;;;;;;;;5111723;28;20119;-67
2023/04/14 00:53:52;;;;;;;74.45;31.92;;;;;;;;;;5111818;28;20020;-65
2023/04/14 00:56:19;;;;;;;78.60;29.73;;;;;;;;;;5111819;28;20115;-64
2023/04/14 00:58:45;;;;;;;51.05;21.98;;;;;;;;;;5111673;28;20020;-63
2023/04/14 01:01:11;;;;;;;50.85;21.77;;;;;;;;;;5111566;28;20020;-69
2023/04/14 01:03:37;;;;;;;63.90;25.27;;;;;;;;;;5112061;28;20096;-64
2023/04/14 01:06:04;;;;;;;78.30;28.52;;;;;;;;;;5111599;28;20035;-63
2023/04/14 01:08:30;;;;;;;92.75;33.58;;;;;;;;;;5111410;28;20059;-64
2023/04/14 01:11:09;;;;;;;83.22;31.27;;;;;;;;;;5111357;28;20058;-67
2023/04/14 01:13:41;;;;;;;103.88;33.72;;;;;;;;;;5112059;28;20126;-66
2023/04/14 01:16:16;;;;;;;59.10;25.05;;;;;;;;;;5112041;28;20023;-63
2023/04/14 01:19:15;;;;;;;51.83;24.50;;;;;;;;;;5109724;28;20031;-63
2023/04/14 01:21:45;;;;;;;53.53;25.25;;;;;;;;;;5111688;28;20023;-68
2023/04/14 01:24:42;;;;;;;44.88;21.80;;;;;;;;;;5110856;28;20031;-69
2023/04/14 01:27:29;;;;;;;41.45;19.73;;;;;;;;;;5110795;28;20031;-64
2023/04/14 01:30:27;;;;;;;36.75;21.60;;;;;;;;;;5108486;28;20083;-63
2023/04/14 01:32:56;;;;;;;88.35;32.38;;;;;;;;;;5109251;28;20110;-67
2023/04/14 01:35:35;;;;;;;66.32;28.90;;;;;;;;;;5110794;28;20082;-66
2023/04/14 01:38:11;;;;;;;52.92;24.73;;;;;;;;;;5110920;28;20110;-63
2023/04/14 01:40:40;;;;;;;41.17;22.88;;;;;;;;;;5109554;28;20355;-63
2023/04/14 01:43:10;;;;;;;42.15;21.55;;;;;;;;;;5111658;28;20486;-67
2023/04/14 01:45:40;;;;;;;33.17;18.80;;;;;;;;;;5111381;28;20339;-71
2023/04/14 01:48:06;;;;;;;;;;;;;;;;;;5109286;28;20126;-64
2023/04/14 01:50:34;;;;;;;24.35;15.25;;;;;;;;;;5111202;28;19970;-64
2023/04/14 01:53:01;;;;;;;26.50;16.30;;;;;;;;;;5110849;28;20042;-68
2023/04/14 01:55:28;;;;;;;71.07;32.65;;;;;;;;;;5111166;28;20036;-67
2023/04/14 01:57:56;;;;;;;48.63;23.67;;;;;;;;;;5110490;28;20027;-67
2023/04/14 02:00:23;;;;;;;48.42;21.75;;;;;;;;;;5110846;28;20030;-63
2023/04/14 02:02:53;;;;;;;46.50;22.08;;;;;;;;;;5110145;28;20081;-67
2023/04/14 02:05:20;;;;;;;24.58;15.50;;;;;;;;;;5092233;28;20063;-64
2023/04/14 02:07:48;;;;;;;26.95;15.82;;;;;;;;;;5110093;28;20043;-65
2023/04/14 02:10:19;;;;;;;26.80;16.13;;;;;;;;;;5110365;28;20029;-66
2023/04/14 02:12:46;;;;;;;23.90;15.00;;;;;;;;;;5110147;28;20023;-67
2023/04/14 02:15:14;;;;;;;31.65;18.50;;;;;;;;;;5110894;28;20028;-66
2023/04/14 02:17:41;;;;;;;30.15;16.17;;;;;;;;;;5110230;28;20474;-65
2023/04/14 02:20:08;;;;;;;75.18;38.13;;;;;;;;;;5110702;28;20071;-63
2023/04/14 02:22:33;;;;;;;90.60;46.60;;;;;;;;;;5110465;28;20027;-68
2023/04/14 02:24:59;;;;;;;78.25;40.47;;;;;;;;;;5109555;28;20076;-63
2023/04/14 02:27:37;;;;;;;47.20;28.17;;;;;;;;;;5109927;28;20061;-64
2023/04/14 02:30:24;;;;;;;42.08;22.13;;;;;;;;;;5110031;28;20470;-65
2023/04/14 02:32:56;;;;;;;44.88;19.90;;;;;;;;;;5109611;28;20031;-63
2023/04/14 02:35:26;;;;;;;38.65;17.85;;;;;;;;;;5109699;28;20035;-63
2023/04/14 02:37:56;;;;;;;48.28;20.38;;;;;;;;;;5109099;28;20125;-63
2023/04/14 02:40:25;;;;;;;36.05;17.88;;;;;;;;;;5106690;28;20031;-64
2023/04/14 02:42:58;;;;;;;37.35;18.35;;;;;;;;;;5106515;28;20041;-63
2023/04/14 02:45:27;;;;;;;32.95;14.00;;;;;;;;;;5106281;28;20107;-66
2023/04/14 02:47:57;;;;;;;30.00;13.85;;;;;;;;;;5106578;28;20035;-63
2023/04/14 02:50:24;;;;;;;32.78;15.38;;;;;;;;;;5106951;28;20043;-64
2023/04/14 02:52:51;;;;;;;28.35;15.55;;;;;;;;;;5106932;28;20015;-64
2023/04/14 02:55:19;;;;;;;33.95;14.35;;;;;;;;;;5107114;28;20027;-70
2023/04/14 02:57:47;;;;;;;44.13;19.35;;;;;;;;;;5106447;28;20030;-63
2023/04/14 03:00:14;;;;;;;47.38;20.08;;;;;;;;;;5107064;28;20035;-65
2023/04/14 03:02:41;;;;;;;67.53;26.15;;;;;;;;;;5107233;28;20027;-63
2023/04/14 03:05:08;;;;;;;51.38;24.13;;;;;;;;;;5108017;28;20038;-65
2023/04/14 03:07:34;;;;;;;45.65;20.02;;;;;;;;;;5106538;28;20053;-63
2023/04/14 03:10:00;;;;;;;37.42;18.23;;;;;;;;;;5107534;28;20035;-63
2023/04/14 03:12:28;;;;;;;30.73;15.43;;;;;;;;;;5107491;28;20039;-69
2023/04/14 03:14:54;;;;;;;32.42;16.15;;;;;;;;;;5107067;28;20081;-63
2023/04/14 03:17:21;;;;;;;30.75;15.52;;;;;;;;;;5107407;28;20492;-63
2023/04/14 03:19:48;;;;;;;31.80;15.13;;;;;;;;;;5107144;28;20477;-64
2023/04/14 03:22:16;;;;;;;28.92;13.43;;;;;;;;;;5107494;28;20422;-65
2023/04/14 03:24:43;;;;;;;24.63;12.27;;;;;;;;;;5107062;28;20092;-62
2023/04/14 03:27:13;;;;;;;24.20;12.68;;;;;;;;;;5106686;28;20023;-62
2023/04/14 03:29:43;;;;;;;24.10;12.90;;;;;;;;;;5106957;28;20039;-65
2023/04/14 03:32:10;;;;;;;20.23;11.43;;;;;;;;;;5106155;28;20141;-63
2023/04/14 03:34:40;;;;;;;19.80;11.48;;;;;;;;;;5107859;28;20042;-67
2023/04/14 03:37:07;;;;;;;19.42;11.43;;;;;;;;;;5105561;28;20110;-64
2023/04/14 03:39:37;;;;;;;17.15;11.10;;;;;;;;;;5108173;28;20031;-66
2023/04/14 03:42:04;;;;;;;;;;;;;;;;;;5107512;28;20024;-63
2023/04/14 03:44:34;;;;;;;17.48;10.02;;;;;;;;;;5106874;28;19911;-64
2023/04/14 03:47:02;;;;;;;15.70;9.93;;;;;;;;;;5106426;28;20055;-63
2023/04/14 03:49:28;;;;;;;19.23;10.20;;;;;;;;;;5107477;28;20031;-65
2023/04/14 03:51:59;;;;;;;17.42;10.13;;;;;;;;;;5106800;28;20551;-62
2023/04/14 03:54:26;;;;;;;;;;;;;;;;;;5107661;28;20023;-67
2023/04/14 03:56:55;;;;;;;24.60;10.93;;;;;;;;;;5106674;28;19907;-66
2023/04/14 03:59:24;;;;;;;20.02;12.18;;;;;;;;;;5106623;28;20098;-63
2023/04/14 04:01:51;;;;;;;28.55;14.93;;;;;;;;;;5106445;28;20020;-62
2023/04/14 04:04:18;;;;;;;21.65;13.05;;;;;;;;;;5106799;28;20032;-62
2023/04/14 04:06:43;;;;;;;24.15;15.20;;;;;;;;;;5107001;28;20035;-63
2023/04/14 04:09:13;;;;;;;37.30;20.58;;;;;;;;;;5108207;28;20038;-64
2023/04/14 04:11:40;;;;;;;27.30;18.05;;;;;;;;;;5114399;28;20032;-67
2023/04/14 04:14:07;;;;;;;24.77;14.35;;;;;;;;;;5095984;28;20088;-63
2023/04/14 04:16:35;;;;;;;27.67;15.32;;;;;;;;;;5114302;28;20497;-70
2023/04/14 04:19:04;;;;;;;26.35;15.82;;;;;;;;;;5114303;28;20118;-63
2023/04/14 04:21:32;;;;;;;31.48;17.90;;;;;;;;;;5114695;28;20079;-65
2023/04/14 04:24:00;;;;;;;20.90;13.30;;;;;;;;;;5095247;28;20031;-62
2023/04/14 04:26:26;;;;;;;20.40;12.35;;;;;;;;;;5113989;28;20100;-63
2023/04/14 04:28:53;;;;;;;18.30;12.00;;;;;;;;;;5115038;28;20474;-63
2023/04/14 04:31:21;;;;;;;22.83;15.65;;;;;;;;;;5113764;28;20066;-68
2023/04/14 04:33:47;;;;;;;23.58;14.85;;;;;;;;;;5113590;28;20035;-62
2023/04/14 04:36:13;;;;;;;26.38;15.57;;;;;;;;;;5113707;28;20027;-64
2023/04/14 04:38:38;;;;;;;28.98;16.00;;;;;;;;;;5113958;27;20042;-64
2023/04/14 04:41:04;;;;;;;26.05;15.93;;;;;;;;;;5114098;28;20107;-67
2023/04/14 04:43:29;;;;;;;26.73;16.77;;;;;;;;;;5113535;28;20518;-64
2023/04/14 04:45:57;;;;;;;29.02;18.52;;;;;;;;;;5113521;28;20431;-69
2023/04/14 04:48:23;;;;;;;27.17;16.75;;;;;;;;;;5113625;28;20040;-63
2023/04/14 04:50:48;;;;;;;24.27;16.95;;;;;;;;;;5113420;28;20587;-62
2023/04/14 04:53:14;;;;;;;21.77;16.15;;;;;;;;;;5113844;28;20417;-63
2023/04/14 04:55:40;;;;;;;25.48;16.10;;;;;;;;;;5114224;28;20034;-62
2023/04/14 04:58:09;;;;;;;21.25;15.15;;;;;;;;;;5113487;28;20398;-64
2023/04/14 05:00:34;;;;;;;28.90;16.88;;;;;;;;;;5114023;28;20492;-64
2023/04/14 05:03:00;;;;;;;23.23;15.77;;;;;;;;;;5113236;28;20028;-63
2023/04/14 05:05:26;;;;;;;29.52;18.55;;;;;;;;;;5113700;28;20742;-64
2023/04/14 05:07:51;;;;;;;31.85;19.08;;;;;;;;;;5113433;28;20038;-63
2023/04/14 05:10:17;;;;;;;31.08;17.88;;;;;;;;;;5113292;28;20030;-66
2023/04/14 05:12:42;;;;;;;28.73;18.70;;;;;;;;;;5113226;28;20026;-62
2023/04/14 05:15:08;;;;;;;30.50;19.05;;;;;;;;;;5113388;28;20039;-63
2023/04/14 05:17:34;;;;;;;26.30;17.48;;;;;;;;;;5111657;28;20478;-63
2023/04/14 05:20:00;;;;;;;31.10;18.15;;;;;;;;;;5113050;28;20046;-63
2023/04/14 05:22:26;;;;;;;25.17;17.45;;;;;;;;;;5109508;28;20027;-62
2023/04/14 05:24:52;;;;;;;26.40;16.73;;;;;;;;;;5110452;28;20495;-63
2023/04/14 05:27:17;;;;;;;28.80;16.50;;;;;;;;;;5109939;28;20024;-64
2023/04/14 05:29:42;;;;;;;27.95;17.42;;;;;;;;;;5109648;28;20034;-63
2023/04/14 05:32:09;;;;;;;28.33;18.42;;;;;;;;;;5110185;28;20054;-64
2023/04/14 05:34:34;;;;;;;28.90;17.67;;;;;;;;;;5110327;28;20031;-63
2023/04/14 05:37:00;;;;;;;28.95;17.27;;;;;;;;;;5109217;28;20023;-63
2023/04/14 05:39:25;;;;;;;28.92;17.30;;;;;;;;;;5109759;28;20848;-62
2023/04/14 05:41:51;;;;;;;25.13;15.02;;;;;;;;;;5109785;28;20031;-63
2023/04/14 05:44:16;;;;;;;21.85;13.30;;;;;;;;;;5109734;28;20031;-65
2023/04/14 05:46:42;;;;;;;24.45;13.60;;;;;;;;;;5109647;28;20386;-62
2023/04/14 05:49:07;;;;;;;22.17;12.90;;;;;;;;;;5109947;28;20500;-62
2023/04/14 05:51:33;;;;;;;24.02;13.35;;;;;;;;;;5110105;28;20028;-63
2023/04/14 05:53:58;;;;;;;21.70;14.35;;;;;;;;;;5108989;28;20421;-62
2023/04/14 05:56:24;;;;;;;22.80;13.98;;;;;;;;;;5109521;28;20043;-71
2023/04/14 05:58:53;;;;;;;22.27;14.75;;;;;;;;;;5109324;28;20426;-62
2023/04/14 06:01:18;;;;;;;22.15;14.48;;;;;;;;;;5109431;28;20381;-63
2023/04/14 06:03:44;;;;;;;26.17;15.07;;;;;;;;;;5109337;28;20024;-63
2023/04/14 06:06:09;;;;;;;25.20;15.20;;;;;;;;;;5108871;28;20437;-62
2023/04/14 06:08:35;;;;;;;27.80;17.13;;;;;;;;;;5109654;28;20110;-63
2023/04/14 06:11:00;;;;;;;28.80;18.02;;;;;;;;;;5109000;28;20390;-62
2023/04/14 06:13:26;;;;;;;28.23;18.50;;;;;;;;;;5109190;28;20035;-63
2023/04/14 06:15:51;;;;;;;26.60;16.65;;;;;;;;;;5109344;28;20482;-63
2023/04/14 06:18:17;;;;;;;29.67;18.13;;;;;;;;;;5109038;28;20557;-63
2023/04/14 06:20:42;;;;;;;24.48;16.00;;;;;;;;;;5108738;28;20032;-62
2023/04/14 06:23:07;;;;;;;31.52;17.02;;;;;;;;;;5108895;28;20020;-63
2023/04/14 06:25:33;;;;;;;27.17;16.98;;;;;;;;;;5109313;28;20099;-61
2023/04/14 06:28:02;;;;;;;28.48;17.90;;;;;;;;;;5108549;28;20119;-63
2023/04/14 06:30:28;;;;;;;30.58;19.48;;;;;;;;;;5108916;28;20521;-66
2023/04/14 06:32:54;;;;;;;28.63;18.33;;;;;;;;;;5108484;28;20416;-62
2023/04/14 06:35:19;;;;;;;28.00;17.23;;;;;;;;;;5108231;28;20114;-71
2023/04/14 06:37:45;;;;;;;30.77;18.15;;;;;;;;;;5108225;28;20039;-71
2023/04/14 06:40:11;;;;;;;24.88;16.40;;;;;;;;;;5108922;28;20470;-63
2023/04/14 06:42:36;;;;;;;24.38;14.20;;;;;;;;;;5108828;28;20028;-62
2023/04/14 06:45:02;;;;;;;19.10;13.90;;;;;;;;;;5108250;28;20023;-62
2023/04/14 06:47:27;;;;;;;18.83;12.27;;;;;;;;;;5108646;28;20052;-63
2023/04/14 06:49:53;;;;;;;15.80;11.30;;;;;;;;;;5108651;28;20511;-63
2023/04/14 06:52:18;;;;;;;19.33;10.88;;;;;;;;;;5108507;28;20024;-63
2023/04/14 06:54:44;;;;;;;17.20;10.60;;;;;;;;;;5108151;28;20024;-63
2023/04/14 06:57:09;;;;;;;17.85;10.25;;;;;;;;;;5107954;28;20032;-64
2023/04/14 06:59:35;;;;;;;14.82;10.02;;;;;;;;;;5109079;28;20470;-64
2023/04/14 07:02:01;;;;;;;15.07;10.10;;;;;;;;;;5108005;28;20102;-64
2023/04/14 07:04:26;;;;;;;15.38;9.45;;;;;;;;;;5108815;28;20536;-67
2023/04/14 07:06:52;;;;;;;16.27;10.23;;;;;;;;;;5107928;28;20027;-63
2023/04/14 07:09:18;;;;;;;15.38;10.05;;;;;;;;;;5107897;28;20458;-64
2023/04/14 07:11:45;;;;;;;16.20;9.77;;;;;;;;;;5108379;28;20142;-62
2023/04/14 07:14:11;;;;;;;15.50;10.45;;;;;;;;;;5089442;28;20054;-62
2023/04/14 07:16:36;;;;;;;14.02;9.00;;;;;;;;;;5108205;28;20055;-62
2023/04/14 07:19:01;;;;;;;14.13;8.77;;;;;;;;;;5107602;28;20028;-62
2023/04/14 07:21:27;;;;;;;15.13;8.80;;;;;;;;;;5108168;28;20037;-67
2023/04/14 07:23:53;;;;;;;15.25;9.30;;;;;;;;;;5107706;28;20102;-62
2023/04/14 07:26:18;;;;;;;15.48;9.65;;;;;;;;;;5107329;28;20500;-63
2023/04/14 07:28:43;;;;;;;15.38;9.85;;;;;;;;;;5107564;28;20055;-75
2023/04/14 07:31:09;;;;;;;16.15;10.02;;;;;;;;;;5107495;28;20427;-65
2023/04/14 07:33:35;;;;;;;16.15;10.15;;;;;;;;;;5108277;28;20470;-66
2023/04/14 07:36:03;;;;;;;15.15;9.75;;;;;;;;;;5107003;28;20027;-64
2023/04/14 07:38:30;;;;;;;16.88;10.32;;;;;;;;;;5107706;28;20028;-66
2023/04/14 07:40:56;;;;;;;14.90;9.27;;;;;;;;;;5107525;28;20022;-62
2023/04/14 07:43:22;;;;;;;14.80;10.25;;;;;;;;;;5107781;28;20077;-64
2023/04/14 07:45:48;;;;;;;15.05;10.15;;;;;;;;;;5106438;28;20051;-62
2023/04/14 07:48:13;;;;;;;15.07;9.20;;;;;;;;;;5107558;28;20070;-62
2023/04/14 07:50:39;;;;;;;12.80;8.15;;;;;;;;;;5107248;28;20043;-64
2023/04/14 07:53:05;;;;;;;13.32;8.40;;;;;;;;;;5107514;28;20047;-64
2023/04/14 07:55:31;;;;;;;11.00;7.82;;;;;;;;;;5104236;28;20394;-75
2023/04/14 07:57:57;;;;;;;12.05;8.35;;;;;;;;;;5107461;28;20114;-64
2023/04/14 08:00:22;;;;;;;14.23;8.93;;;;;;;;;;5107569;28;20389;-64
2023/04/14 08:02:48;;;;;;;14.75;9.75;;;;;;;;;;5108261;28;20020;-65
2023/04/14 08:05:13;;;;;;;15.80;9.75;;;;;;;;;;5107144;28;20023;-64
2023/04/14 08:07:38;;;;;;;16.42;9.25;;;;;;;;;;5107124;28;20020;-64
2023/04/14 08:10:04;;;;;;;14.95;9.07;;;;;;;;;;5107874;28;20024;-69
2023/04/14 08:12:30;;;;;;;16.52;10.07;;;;;;;;;;5107325;28;20027;-61
2023/04/14 08:14:55;;;;;;;13.05;8.93;;;;;;;;;;5106866;28;20933;-64
2023/04/14 08:17:21;;;;;;;15.50;9.18;;;;;;;;;;5107234;28;20390;-62
2023/04/14 08:19:47;;;;;;;14.55;9.45;;;;;;;;;;5103765;28;20031;-64
2023/04/14 08:22:12;;;;;;;14.43;9.73;;;;;;;;;;5106188;28;20076;-64
2023/04/14 08:24:38;;;;;;;16.50;10.68;;;;;;;;;;5107057;28;20102;-63
2023/04/14 08:27:03;;;;;;;19.58;12.13;;;;;;;;;;5088625;28;20436;-67
2023/04/14 08:29:29;;;;;;;17.90;11.38;;;;;;;;;;5107014;28;20049;-65
2023/04/14 08:31:54;;;;;;;19.33;12.65;;;;;;;;;;5106918;28;20023;-63
2023/04/14 08:34:20;;;;;;;18.48;11.88;;;;;;;;;;5107275;28;20107;-63
2023/04/14 08:36:46;;;;;;;19.75;12.98;;;;;;;;;;5107305;28;20123;-63
2023/04/14 08:39:12;;;;;;;21.02;13.48;;;;;;;;;;5108210;28;20020;-63
2023/04/14 08:41:38;;;;;;;23.77;14.75;;;;;;;;;;5107227;28;20020;-63
2023/04/14 08:44:04;;;;;;;26.23;15.77;;;;;;;;;;5108615;28;20023;-63
2023/04/14 08:46:31;;;;;;;27.08;17.55;;;;;;;;;;5108224;28;20028;-63
2023/04/14 08:49:04;;;;;;;30.20;19.73;;;;;;;;;;5106809;28;20058;-65
2023/04/14 08:51:42;;;;;;;36.10;24.23;;;;;;;;;;5107835;28;20073;-66
2023/04/14 08:54:09;;;;;;;37.10;20.50;;;;;;;;;;5106792;28;20476;-70
2023/04/14 08:56:37;;;;;;;30.45;18.73;;;;;;;;;;5109901;28;20019;-64
2023/04/14 08:59:05;;;;;;;25.77;17.08;;;;;;;;;;5111987;28;20474;-63
2023/04/14 09:01:32;;;;;;;25.15;16.27;;;;;;;;;;5112776;28;20114;-63
2023/04/14 09:03:59;;;;;;;27.13;16.77;;;;;;;;;;5111340;28;20035;-64
2023/04/14 09:06:26;;;;;;;28.00;18.13;;;;;;;;;;5111917;28;20108;-64
2023/04/14 09:08:52;;;;;;;28.30;17.58;;;;;;;;;;5111618;28;20024;-68
2023/04/14 09:11:18;;;;;;;30.60;17.73;;;;;;;;;;5111838;28;20042;-68
2023/04/14 09:13:44;;;;;;;27.88;17.92;;;;;;;;;;5111519;28;20028;-64
2023/04/14 09:16:11;;;;;;;30.08;19.05;;;;;;;;;;5111900;27;20046;-65
2023/04/14 09:18:37;;;;;;;29.50;16.75;;;;;;;;;;5112005;28;20140;-64
2023/04/14 09:21:03;;;;;;;23.83;16.67;;;;;;;;;;5111961;27;20118;-74
2023/04/14 09:23:29;;;;;;;29.85;17.27;;;;;;;;;;5111658;28;20504;-73
2023/04/14 09:25:55;;;;;;;26.25;16.88;;;;;;;;;;5111392;28;20032;-64
2023/04/14 09:28:20;;;;;;;27.92;17.65;;;;;;;;;;5111548;28;20019;-66
2023/04/14 09:30:46;;;;;;;26.70;17.13;;;;;;;;;;5110534;28;20031;-63
2023/04/14 09:33:20;;;;;;;28.63;18.88;;;;;;;;;;5110873;27;20039;-63
2023/04/14 09:35:48;;;;;;;29.00;18.25;;;;;;;;;;5110835;28;20039;-64
2023/04/14 09:38:14;;;;;;;28.85;18.25;;;;;;;;;;5111353;28;20543;-63
2023/04/14 09:40:43;;;;;;;29.90;18.33;;;;;;;;;;5110829;28;20490;-67
2023/04/14 09:43:25;;;;;;;31.50;18.05;;;;;;;;;;5111271;28;20035;-65
2023/04/14 09:45:52;;;;;;;25.63;17.52;;;;;;;;;;5111070;28;20442;-67
2023/04/14 09:48:19;;;;;;;30.23;18.83;;;;;;;;;;5111093;28;20035;-63
2023/04/14 09:50:59;;;;;;;29.13;18.83;;;;;;;;;;5110672;28;20058;-66
2023/04/14 09:53:29;;;;;;;27.70;18.17;;;;;;;;;;5111217;28;20035;-64
2023/04/14 09:55:56;;;;;;;31.27;18.98;;;;;;;;;;5109887;28;20041;-63
2023/04/14 09:58:22;;;;;;;30.70;20.55;;;;;;;;;;5111187;28;20038;-63
2023/04/14 10:00:51;;;;;;;31.73;18.95;;;;;;;;;;5110581;28;20389;-65
2023/04/14 10:03:34;;;;;;;34.05;21.60;;;;;;;;;;5110878;28;20031;-67
2023/04/14 10:06:01;;;;;;;35.53;21.85;;;;;;;;;;5110195;28;20035;-64
2023/04/14 10:08:37;;;;;;;33.42;21.98;;;;;;;;;;5110194;28;20463;-64
2023/04/14 10:11:18;;;;;;;33.10;21.55;;;;;;;;;;5110691;28;20023;-65
2023/04/14 10:13:47;;;;;;;30.10;21.33;;;;;;;;;;5110545;28;20027;-63
2023/04/14 10:16:14;;;;;;;34.58;21.30;;;;;;;;;;5110039;28;20023;-64
2023/04/14 10:18:40;;;;;;;35.20;22.65;;;;;;;;;;5110099;28;20027;-63
2023/04/14 10:21:06;;;;;;;32.75;23.30;;;;;;;;;;5111098;28;20024;-64
2023/04/14 10:23:34;;;;;;;31.60;22.17;;;;;;;;;;5110502;28;20549;-64
2023/04/14 10:26:02;;;;;;;38.33;24.63;;;;;;;;;;5109924;28;20437;-63
2023/04/14 10:28:29;;;;;;;36.50;24.05;;;;;;;;;;5110408;28;20518;-68
2023/04/14 10:30:56;;;;;;;34.15;21.92;;;;;;;;;;5110007;28;20024;-63
2023/04/14 10:33:23;;;;;;;32.97;21.75;;;;;;;;;;5109681;28;20404;-64
2023/04/14 10:35:54;;;;;;;37.17;23.67;;;;;;;;;;5109811;28;20056;-63
2023/04/14 10:38:19;;;;;;;32.17;21.42;;;;;;;;;;5110198;28;20034;-64
2023/04/14 10:40:50;;;;;;;31.05;20.55;;;;;;;;;;5109735;28;20035;-63
2023/04/14 10:43:16;;;;;;;31.05;20.65;;;;;;;;;;5091993;28;20464;-68
2023/04/14 10:45:55;;;;;;;31.58;20.95;;;;;;;;;;5110033;28;20162;-64
2023/04/14 10:48:25;;;;;;;27.55;19.40;;;;;;;;;;5109395;28;20470;-68
2023/04/14 10:50:55;;;;;;;29.75;19.17;;;;;;;;;;5109749;28;20477;-64
2023/04/14 10:53:32;;;;;;;31.80;19.42;;;;;;;;;;5109954;28;20057;-64
2023/04/14 10:56:01;;;;;;;30.10;20.38;;;;;;;;;;5109343;28;20536;-64
2023/04/14 10:58:31;;;;;;;29.25;20.80;;;;;;;;;;5109444;28;20032;-62
2023/04/14 11:00:56;;;;;;;31.07;20.27;;;;;;;;;;5109302;28;20051;-64
2023/04/14 11:03:22;;;;;;;30.40;21.80;;;;;;;;;;5109603;28;20024;-71
2023/04/14 11:05:49;;;;;;;27.50;20.30;;;;;;;;;;5109109;28;20020;-64
2023/04/14 11:08:35;;;;;;;32.15;21.52;;;;;;;;;;5109494;28;20026;-63
2023/04/14 11:11:05;;;;;;;30.02;21.17;;;;;;;;;;5108513;28;20035;-65
2023/04/14 11:13:33;;;;;;;34.92;22.38;;;;;;;;;;5109509;28;20035;-65
2023/04/14 11:16:06;;;;;;;31.75;22.42;;;;;;;;;;5108991;28;20043;-69
2023/04/14 11:18:36;;;;;;;32.33;21.83;;;;;;;;;;5109024;28;20032;-64
2023/04/14 11:21:11;;;;;;;32.30;22.27;;;;;;;;;;5108777;28;20020;-68
2023/04/14 11:23:37;;;;;;;32.03;21.73;;;;;;;;;;5108340;28;20031;-63
2023/04/14 11:26:07;;;;;;;29.23;20.35;;;;;;;;;;5108864;28;20503;-63
2023/04/14 11:28:38;;;;;;;28.30;20.35;;;;;;;;;;5109261;28;20024;-65
2023/04/14 11:31:05;;;;;;;30.77;20.02;;;;;;;;;;5109472;28;20077;-63
2023/04/14 11:33:36;;;;;;;29.10;20.63;;;;;;;;;;5109199;28;20484;-73
2023/04/14 11:36:04;;;;;;;28.42;19.33;;;;;;;;;;5108726;28;20024;-68
2023/04/14 11:38:30;;;;;;;28.15;20.00;;;;;;;;;;5108992;28;20527;-65
2023/04/14 11:40:57;;;;;;;26.45;18.05;;;;;;;;;;5108750;28;20382;-70
2023/04/14 11:43:29;;;;;;;23.02;16.77;;;;;;;;;;5108915;28;20493;-64
2023/04/14 11:45:57;;;;;;;23.90;17.13;;;;;;;;;;5108564;28;20035;-63
2023/04/14 11:48:22;;;;;;;20.90;14.32;;;;;;;;;;5108865;28;20036;-68
2023/04/14 11:50:48;;;;;;;20.88;15.20;;;;;;;;;;5108730;28;20394;-71
2023/04/14 11:53:16;;;;;;;21.20;14.65;;;;;;;;;;5108313;28;20032;-64
2023/04/14 11:55:46;;;;;;;19.20;13.75;;;;;;;;;;5108293;28;20031;-62
2023/04/14 11:58:13;;;;;;;19.45;13.60;;;;;;;;;;5108457;28;20110;-62
2023/04/14 12:00:40;;;;;;;19.25;13.50;;;;;;;;;;5108405;28;20028;-62
2023/04/14 12:03:09;;;;;;;21.27;13.45;;;;;;;;;;5109186;28;20031;-64
2023/04/14 12:05:34;;;;;;;19.38;13.85;;;;;;;;;;5108938;28;20033;-62
2023/04/14 12:08:07;;;;;;;18.88;13.57;;;;;;;;;;5108396;28;20466;-62
2023/04/14 12:10:36;;;;;;;21.20;13.63;;;;;;;;;;5106432;28;20135;-62
2023/04/14 12:13:07;;;;;;;20.58;13.63;;;;;;;;;;5107992;28;20050;-62
2023/04/14 12:15:38;;;;;;;20.85;14.30;;;;;;;;;;5108846;28;20032;-66
2023/04/14 12:18:24;;;;;;;20.55;14.60;;;;;;;;;;5108726;28;20463;-70
2023/04/14 12:20:54;;;;;;;21.83;14.13;;;;;;;;;;5107537;28;20412;-62
2023/04/14 12:23:20;;;;;;;16.13;11.93;;;;;;;;;;5108426;28;20023;-62
2023/04/14 12:25:50;;;;;;;16.90;12.07;;;;;;;;;;5106127;28;20075;-62
2023/04/14 12:28:27;;;;;;;18.73;12.63;;;;;;;;;;5108312;28;20393;-62
2023/04/14 12:30:57;;;;;;;18.48;13.25;;;;;;;;;;5109839;28;20024;-62
2023/04/14 12:33:26;;;;;;;20.50;15.48;;;;;;;;;;5111132;28;20035;-62
2023/04/14 12:35:52;;;;;;;21.42;14.73;;;;;;;;;;5112041;28;20032;-62
2023/04/14 12:38:18;;;;;;;24.48;15.02;;;;;;;;;;5112449;28;20080;-62
2023/04/14 12:40:46;;;;;;;18.35;13.45;;;;;;;;;;5110812;28;20023;-72
2023/04/14 12:43:15;;;;;;;22.13;14.23;;;;;;;;;;5112524;28;20032;-69
2023/04/14 12:45:45;;;;;;;19.67;13.75;;;;;;;;;;5111796;28;20413;-63
2023/04/14 12:48:16;;;;;;;19.00;13.93;;;;;;;;;;5111871;28;20088;-62
2023/04/14 12:50:42;;;;;;;18.35;13.27;;;;;;;;;;5110856;28;20043;-62
2023/04/14 12:53:25;;;;;;;17.13;12.57;;;;;;;;;;5111734;28;20038;-61
2023/04/14 12:56:06;;;;;;;16.30;12.93;;;;;;;;;;5111302;28;20023;-62
2023/04/14 12:58:33;;;;;;;18.15;12.20;;;;;;;;;;5112173;28;20374;-62
2023/04/14 13:00:59;;;;;;;18.65;14.25;;;;;;;;;;5111220;28;20024;-62
2023/04/14 13:03:24;;;;;;;22.38;15.18;;;;;;;;;;5111503;28;20073;-62
2023/04/14 13:05:50;;;;;;;22.33;15.63;;;;;;;;;;5111338;28;20047;-64
2023/04/14 13:08:15;;;;;;;23.27;15.48;;;;;;;;;;5111822;28;20119;-62
2023/04/14 13:10:41;;;;;;;22.70;16.58;;;;;;;;;;5110735;28;20470;-62
2023/04/14 13:13:06;;;;;;;20.88;14.70;;;;;;;;;;5112148;28;20040;-64
2023/04/14 13:15:31;;;;;;;23.92;16.02;;;;;;;;;;5112011;28;20055;-65
2023/04/14 13:17:57;;;;;;;23.52;15.50;;;;;;;;;;5108684;28;20418;-62
2023/04/14 13:20:22;;;;;;;22.02;15.10;;;;;;;;;;5110288;28;20043;-62
2023/04/14 13:22:47;;;;;;;25.88;16.83;;;;;;;;;;5110771;28;20067;-62
2023/04/14 13:25:13;;;;;;;27.52;17.23;;;;;;;;;;5107952;28;20019;-62
2023/04/14 13:27:38;;;;;;;26.90;17.23;;;;;;;;;;5109504;28;20123;-62
2023/04/14 13:30:05;;;;;;;27.15;17.98;;;;;;;;;;5111686;28;20030;-64
2023/04/14 13:32:30;;;;;;;25.17;17.02;;;;;;;;;;5111832;28;20034;-62
2023/04/14 13:34:56;;;;;;;21.85;17.02;;;;;;;;;;5110851;28;20114;-62
2023/04/14 13:37:21;;;;;;;25.73;16.58;;;;;;;;;;5111317;28;20031;-62
2023/04/14 13:39:47;;;;;;;22.90;15.85;;;;;;;;;;5110818;28;20486;-71
2023/04/14 13:42:13;;;;;;;22.50;15.88;;;;;;;;;;5109924;28;20161;-64
2023/04/14 13:44:39;;;;;;;24.75;17.17;;;;;;;;;;5110706;28;20520;-64
2023/04/14 13:47:04;;;;;;;28.85;17.48;;;;;;;;;;5111253;28;20130;-61
2023/04/14 13:49:30;;;;;;;26.73;17.80;;;;;;;;;;5111120;28;20024;-64
2023/04/14 13:51:56;;;;;;;26.00;17.00;;;;;;;;;;5110613;28;20099;-62
2023/04/14 13:54:21;;;;;;;22.35;15.07;;;;;;;;;;5110729;28;20466;-63
2023/04/14 13:56:46;;;;;;;22.27;16.33;;;;;;;;;;5110457;28;20464;-62
2023/04/14 13:59:15;;;;;;;27.25;18.42;;;;;;;;;;5110792;28;20494;-64
2023/04/14 14:01:40;;;;;;;26.10;17.38;;;;;;;;;;5110893;28;20054;-63
2023/04/14 14:04:06;;;;;;;27.02;18.17;;;;;;;;;;5111382;28;20470;-62
2023/04/14 14:06:31;;;;;;;26.73;18.02;;;;;;;;;;5111224;28;20486;-62
2023/04/14 14:09:03;;;;;;;26.58;17.52;;;;;;;;;;5110098;28;21296;-63
2023/04/14 14:11:30;;;;;;;24.42;17.35;;;;;;;;;;5111280;28;20067;-62
2023/04/14 14:13:55;;;;;;;26.27;18.20;;;;;;;;;;5110539;28;20027;-64
2023/04/14 14:16:21;;;;;;;29.20;19.58;;;;;;;;;;5110717;28;20039;-68
2023/04/14 14:18:47;;;;;;;30.95;19.10;;;;;;;;;;5110414;28;20038;-64
2023/04/14 14:21:12;;;;;;;29.30;19.33;;;;;;;;;;5110038;28;20389;-62